createdAt,value
2023-02-11T00:01:20.842Z,10.05
2023-02-11T00:03:48.235Z,10.23
2023-02-11T00:06:15.884Z,9.90
2023-02-11T00:08:43.263Z,10.73
2023-02-11T00:11:15.052Z,10.00
2023-02-11T00:13:43.917Z,10.00
2023-02-11T00:16:17.533Z,9.90
2023-02-11T00:18:45.676Z,9.60
2023-02-11T00:21:20.978Z,9.15
2023-02-11T00:23:48.721Z,9.80
2023-02-11T00:26:24.440Z,9.35
2023-02-11T00:28:53.317Z,9.10
2023-02-11T00:31:22.875Z,8.88
2023-02-11T00:33:51.467Z,8.57
2023-02-11T00:36:25.927Z,9.60
2023-02-11T00:38:56.231Z,10.00
2023-02-11T00:41:24.298Z,9.18
2023-02-11T00:43:52.693Z,10.13
2023-02-11T00:46:20.201Z,9.93
2023-02-11T00:48:47.892Z,9.68
2023-02-11T00:51:14.955Z,9.40
2023-02-11T00:53:42.345Z,10.45
2023-02-11T00:56:10.202Z,10.38
2023-02-11T00:58:38.082Z,10.35
2023-02-11T01:01:05.644Z,9.45
2023-02-11T01:03:33.496Z,10.45
2023-02-11T01:06:00.823Z,9.68
2023-02-11T01:08:28.247Z,9.88
2023-02-11T01:11:11.216Z,10.30
2023-02-11T01:13:38.696Z,9.70
2023-02-11T01:16:11.200Z,9.88
2023-02-11T01:18:39.585Z,9.02
2023-02-11T01:21:07.627Z,9.52
2023-02-11T01:23:34.985Z,9.45
2023-02-11T01:26:02.913Z,9.68
2023-02-11T01:28:31.588Z,9.35
2023-02-11T01:31:02.353Z,9.15
2023-02-11T01:33:30.363Z,8.93
2023-02-11T01:36:03.383Z,8.98
2023-02-11T01:38:31.636Z,9.18
2023-02-11T01:41:09.055Z,9.40
2023-02-11T01:43:47.254Z,9.55
2023-02-11T01:46:36.617Z,9.40
2023-02-11T01:49:12.376Z,9.50
2023-02-11T01:52:03.943Z,10.07
2023-02-11T01:54:56.281Z,9.82
2023-02-11T01:57:28.830Z,10.67
2023-02-11T02:00:34.088Z,10.23
2023-02-11T02:03:23.249Z,9.57
2023-02-11T02:06:10.839Z,10.07
2023-02-11T02:08:46.853Z,10.98
2023-02-11T02:11:14.216Z,10.35
2023-02-11T02:13:41.620Z,10.20
2023-02-11T02:16:17.041Z,10.27
2023-02-11T02:19:14.520Z,10.80
2023-02-11T02:22:40.992Z,10.77
2023-02-11T02:25:45.000Z,9.48
2023-02-11T02:28:50.947Z,10.25
2023-02-11T02:31:38.653Z,11.07
2023-02-11T02:34:23.645Z,12.68
2023-02-11T02:37:18.048Z,13.10
2023-02-11T02:39:49.478Z,13.68
2023-02-11T02:42:18.507Z,13.73
2023-02-11T02:44:52.045Z,13.73
2023-02-11T02:47:19.494Z,13.32
2023-02-11T02:49:46.662Z,13.85
2023-02-11T02:52:41.863Z,13.48
2023-02-11T02:55:44.136Z,13.50
2023-02-11T02:58:42.853Z,12.80
2023-02-11T03:01:47.840Z,12.50
2023-02-11T03:04:47.146Z,13.18
2023-02-11T03:07:36.435Z,12.35
2023-02-11T03:10:16.738Z,11.90
2023-02-11T03:12:48.182Z,12.00
2023-02-11T03:15:19.374Z,11.75
2023-02-11T03:17:51.608Z,11.60
2023-02-11T03:20:22.843Z,11.10
2023-02-11T03:23:02.167Z,10.17
2023-02-11T03:25:45.466Z,9.90
2023-02-11T03:28:36.860Z,10.20
2023-02-11T03:31:30.278Z,9.65
2023-02-11T03:34:10.150Z,9.32
2023-02-11T03:36:51.791Z,8.88
2023-02-11T03:39:33.227Z,10.07
2023-02-11T03:42:04.257Z,9.82
2023-02-11T03:44:40.816Z,9.68
2023-02-11T03:47:12.352Z,9.38
2023-02-11T03:49:42.600Z,9.57
2023-02-11T03:52:12.800Z,9.73
2023-02-11T03:54:44.829Z,9.95
2023-02-11T03:57:11.997Z,9.90
2023-02-11T03:59:55.655Z,10.35
2023-02-11T04:02:30.080Z,10.07
2023-02-11T04:04:58.606Z,10.82
2023-02-11T04:07:26.465Z,10.15
2023-02-11T04:09:54.022Z,10.10
2023-02-11T04:12:21.414Z,9.98
2023-02-11T04:14:48.436Z,9.52
2023-02-11T04:17:15.685Z,9.18
2023-02-11T04:19:42.777Z,9.13
2023-02-11T04:22:10.357Z,8.35
2023-02-11T04:24:37.474Z,9.30
2023-02-11T04:27:04.821Z,9.15
2023-02-11T04:29:32.083Z,9.05
2023-02-11T04:31:59.425Z,9.07
2023-02-11T04:34:26.972Z,8.90
2023-02-11T04:36:54.426Z,8.73
2023-02-11T04:39:21.376Z,8.70
2023-02-11T04:41:48.608Z,8.95
2023-02-11T04:44:15.552Z,8.05
2023-02-11T04:46:42.772Z,7.15
2023-02-11T04:49:14.566Z,7.68
2023-02-11T04:51:42.541Z,7.22
2023-02-11T04:54:09.541Z,7.35
2023-02-11T04:56:37.254Z,6.35
2023-02-11T04:59:05.617Z,7.28
2023-02-11T05:01:33.696Z,7.30
2023-02-11T05:04:01.350Z,8.00
2023-02-11T05:06:28.708Z,8.18
2023-02-11T05:08:55.663Z,8.25
2023-02-11T05:11:26.112Z,8.23
2023-02-11T05:13:53.259Z,8.55
2023-02-11T05:16:20.712Z,9.05
2023-02-11T05:18:48.554Z,9.68
2023-02-11T05:21:19.312Z,9.80
2023-02-11T05:23:46.487Z,10.40
2023-02-11T05:26:14.937Z,9.02
2023-02-11T05:28:42.894Z,9.48
2023-02-11T05:31:11.882Z,9.38
2023-02-11T05:33:39.131Z,9.07
2023-02-11T05:36:10.467Z,9.60
2023-02-11T05:38:38.481Z,9.82
2023-02-11T05:41:07.112Z,9.45
2023-02-11T05:43:37.422Z,10.60
2023-02-11T05:46:06.172Z,12.05
2023-02-11T05:48:33.726Z,11.30
2023-02-11T05:51:01.012Z,12.40
2023-02-11T05:53:28.127Z,12.00
2023-02-11T05:55:55.523Z,12.15
2023-02-11T05:58:22.757Z,11.23
2023-02-11T06:00:50.052Z,11.70
2023-02-11T06:03:17.161Z,12.07
2023-02-11T06:05:46.598Z,10.82
2023-02-11T06:08:13.603Z,12.55
2023-02-11T06:10:43.102Z,11.82
2023-02-11T06:13:10.033Z,11.35
2023-02-11T06:15:37.190Z,11.75
2023-02-11T06:18:04.649Z,12.02
2023-02-11T06:20:32.588Z,11.73
2023-02-11T06:23:00.376Z,11.55
2023-02-11T06:25:28.499Z,11.75
2023-02-11T06:27:55.629Z,11.02
2023-02-11T06:30:22.889Z,11.95
2023-02-11T06:32:49.965Z,11.75
2023-02-11T06:35:17.196Z,13.02
2023-02-11T06:37:45.344Z,13.75
2023-02-11T06:40:13.177Z,14.32
2023-02-11T06:42:40.347Z,13.25
2023-02-11T06:45:13.066Z,14.52
2023-02-11T06:47:41.089Z,14.30
2023-02-11T06:50:12.666Z,13.60
2023-02-11T06:52:40.338Z,14.23
2023-02-11T06:55:08.083Z,14.07
2023-02-11T06:57:35.043Z,13.68
2023-02-11T07:00:02.680Z,15.57
2023-02-11T07:02:30.008Z,15.00
2023-02-11T07:04:57.328Z,17.75
2023-02-11T07:07:24.257Z,17.40
2023-02-11T07:09:51.574Z,17.42
2023-02-11T07:12:18.580Z,17.25
2023-02-11T07:14:45.915Z,18.70
2023-02-11T07:17:12.949Z,18.10
2023-02-11T07:19:40.248Z,18.50
2023-02-11T07:22:07.294Z,21.20
2023-02-11T07:24:34.504Z,18.73
2023-02-11T07:27:01.609Z,18.27
2023-02-11T07:29:28.983Z,16.20
2023-02-11T07:31:56.053Z,16.55
2023-02-11T07:34:23.384Z,16.15
2023-02-11T07:36:50.587Z,15.55
2023-02-11T07:39:22.520Z,17.08
2023-02-11T07:42:15.200Z,13.75
2023-02-11T07:44:42.840Z,14.13
2023-02-11T07:47:09.813Z,13.77
2023-02-11T07:49:37.188Z,14.38
2023-02-11T07:52:04.321Z,14.27
2023-02-11T07:54:31.491Z,13.57
2023-02-11T07:56:58.800Z,14.60
2023-02-11T07:59:27.412Z,14.65
2023-02-11T08:01:54.477Z,14.10
2023-02-11T08:04:21.793Z,14.07
2023-02-11T08:06:48.735Z,13.48
2023-02-11T08:09:16.832Z,13.93
2023-02-11T08:11:45.184Z,13.40
2023-02-11T08:14:12.801Z,14.98
2023-02-11T08:16:40.272Z,14.13
2023-02-11T08:19:16.929Z,15.35
2023-02-11T08:21:44.265Z,15.52
2023-02-11T08:24:12.249Z,17.33
2023-02-11T08:26:40.031Z,16.40
2023-02-11T08:29:12.155Z,17.10
2023-02-11T08:31:43.675Z,16.42
2023-02-11T08:34:14.320Z,12.75
2023-02-11T08:36:42.694Z,14.70
2023-02-11T08:39:20.976Z,13.27
2023-02-11T08:41:52.782Z,13.23
2023-02-11T08:44:22.640Z,12.70
2023-02-11T08:46:50.868Z,12.90
2023-02-11T08:49:18.781Z,12.20
2023-02-11T08:51:47.196Z,12.35
2023-02-11T08:54:15.448Z,12.18
2023-02-11T08:56:42.790Z,12.02
2023-02-11T08:59:15.329Z,11.75
2023-02-11T09:01:43.976Z,12.18
2023-02-11T09:04:11.347Z,12.88
2023-02-11T09:06:38.964Z,12.00
2023-02-11T09:09:06.839Z,12.63
2023-02-11T09:11:35.743Z,12.20
2023-02-11T09:14:04.756Z,11.75
2023-02-11T09:16:36.256Z,10.63
2023-02-11T09:19:05.827Z,11.55
2023-02-11T09:21:33.107Z,10.75
2023-02-11T09:24:00.743Z,11.63
2023-02-11T09:26:34.550Z,9.93
2023-02-11T09:29:03.381Z,10.25
2023-02-11T09:31:32.758Z,9.48
2023-02-11T09:34:06.357Z,10.07
2023-02-11T09:36:38.416Z,9.20
2023-02-11T09:39:11.824Z,9.55
2023-02-11T09:42:20.141Z,9.88
2023-02-11T09:44:48.488Z,10.20
2023-02-11T09:47:40.067Z,10.35
2023-02-11T09:50:16.486Z,6.90
2023-02-11T09:53:11.332Z,10.30
2023-02-11T09:55:46.610Z,10.43
2023-02-11T09:58:26.076Z,10.18
2023-02-11T10:01:27.123Z,10.07
2023-02-11T10:04:18.404Z,10.25
2023-02-11T10:06:53.080Z,10.90
2023-02-11T10:10:03.425Z,9.73
2023-02-11T10:12:54.523Z,10.40
2023-02-11T10:15:21.644Z,9.95
2023-02-11T10:18:20.741Z,9.65
2023-02-11T10:21:10.239Z,8.77
2023-02-11T10:23:44.949Z,10.63
2023-02-11T10:26:19.853Z,10.13
2023-02-11T10:28:55.885Z,10.63
2023-02-11T10:31:33.943Z,11.00
2023-02-11T10:34:07.347Z,10.80
2023-02-11T10:36:38.849Z,10.50
2023-02-11T10:39:21.130Z,10.55
2023-02-11T10:41:56.265Z,8.52
2023-02-11T10:44:35.764Z,9.32
2023-02-11T10:47:15.654Z,5.88
2023-02-11T10:49:46.219Z,7.07
2023-02-11T10:52:27.137Z,10.18
2023-02-11T10:55:22.098Z,11.02
2023-02-11T10:58:01.769Z,9.10
2023-02-11T11:00:41.419Z,10.38
2023-02-11T11:03:45.640Z,10.88
2023-02-11T11:06:13.524Z,10.73
2023-02-11T11:08:48.203Z,8.82
2023-02-11T11:11:23.463Z,11.27
2023-02-11T11:13:53.223Z,11.43
2023-02-11T11:16:35.554Z,11.88
2023-02-11T11:19:08.543Z,10.98
2023-02-11T11:21:56.142Z,10.50
2023-02-11T11:24:43.880Z,12.25
2023-02-11T11:27:21.796Z,10.98
2023-02-11T11:29:55.775Z,10.35
2023-02-11T11:32:33.515Z,10.40
2023-02-11T11:35:08.411Z,11.50
2023-02-11T11:37:38.822Z,11.27
2023-02-11T11:40:16.847Z,11.27
2023-02-11T11:42:44.466Z,11.35
2023-02-11T11:45:19.957Z,11.77
2023-02-11T11:48:13.151Z,11.02
2023-02-11T11:50:53.414Z,9.88
2023-02-11T11:53:40.731Z,10.93
2023-02-11T11:56:29.938Z,10.98
2023-02-11T11:59:02.805Z,10.10
2023-02-11T12:01:55.785Z,11.32
2023-02-11T12:04:34.100Z,10.73
2023-02-11T12:07:36.879Z,10.98
2023-02-11T12:10:30.072Z,11.15
2023-02-11T12:13:23.159Z,12.15
2023-02-11T12:16:33.712Z,12.07
2023-02-11T12:19:35.932Z,12.65
2023-02-11T12:22:16.515Z,15.68
2023-02-11T12:25:20.355Z,13.23
2023-02-11T12:27:57.640Z,13.00
2023-02-11T12:30:39.813Z,12.88
2023-02-11T12:33:22.720Z,12.38
2023-02-11T12:36:06.684Z,11.27
2023-02-11T12:38:50.795Z,12.10
2023-02-11T12:42:03.118Z,11.93
2023-02-11T12:44:56.972Z,11.43
2023-02-11T12:47:54.360Z,12.13
2023-02-11T12:51:10.182Z,12.40
2023-02-11T12:53:59.909Z,12.95
2023-02-11T12:57:15.220Z,13.05
2023-02-11T13:00:00.761Z,12.15
2023-02-11T13:03:09.391Z,12.02
2023-02-11T13:05:56.999Z,11.52
2023-02-11T13:08:35.744Z,11.05
2023-02-11T13:11:15.977Z,12.20
2023-02-11T13:14:03.907Z,11.68
2023-02-11T13:16:44.628Z,10.70
2023-02-11T13:19:27.353Z,10.98
2023-02-11T13:22:19.587Z,12.20
2023-02-11T13:25:11.725Z,12.23
2023-02-11T13:28:14.723Z,13.68
2023-02-11T13:33:17.038Z,12.45
2023-02-11T13:36:04.901Z,13.80
2023-02-11T13:38:33.160Z,13.27
2023-02-11T13:41:04.900Z,12.07
2023-02-11T13:43:35.957Z,13.40
2023-02-11T13:46:10.059Z,12.07
2023-02-11T13:48:45.811Z,12.48
2023-02-11T13:51:17.972Z,11.80
2023-02-11T13:53:57.397Z,13.63
2023-02-11T13:56:40.705Z,14.00
2023-02-11T13:59:27.635Z,11.18
2023-02-11T14:02:41.679Z,10.55
2023-02-11T14:05:27.765Z,12.15
2023-02-11T14:08:28.782Z,11.48
2023-02-11T14:11:12.239Z,12.85
2023-02-11T14:13:48.709Z,13.00
2023-02-11T14:16:36.357Z,13.52
2023-02-11T14:19:06.362Z,13.48
2023-02-11T14:21:40.321Z,11.82
2023-02-11T14:24:14.410Z,12.82
2023-02-11T14:26:55.717Z,12.63
2023-02-11T14:30:00.482Z,13.30
2023-02-11T14:33:08.447Z,14.07
2023-02-11T14:36:19.748Z,13.73
2023-02-11T14:39:18.076Z,13.57
2023-02-11T14:41:51.191Z,13.27
2023-02-11T14:44:30.056Z,12.90
2023-02-11T14:46:58.515Z,12.95
2023-02-11T14:49:34.667Z,13.77
2023-02-11T14:52:29.870Z,13.23
2023-02-11T14:55:18.019Z,12.48
2023-02-11T14:57:45.785Z,12.15
2023-02-11T15:00:30.706Z,12.75
2023-02-11T15:02:58.669Z,12.48
2023-02-11T15:05:29.160Z,12.40
2023-02-11T15:08:01.977Z,11.82
2023-02-11T15:10:36.253Z,12.52
2023-02-11T15:13:05.803Z,12.48
2023-02-11T15:15:36.412Z,12.52
2023-02-11T15:18:05.444Z,13.10
2023-02-11T15:20:34.148Z,13.38
2023-02-11T15:23:14.769Z,13.43
2023-02-11T15:25:52.906Z,13.48
2023-02-11T15:28:29.106Z,12.73
2023-02-11T15:31:17.563Z,12.07
2023-02-11T15:33:45.522Z,13.57
2023-02-11T15:36:15.456Z,13.82
2023-02-11T15:38:43.291Z,13.60
2023-02-11T15:41:36.354Z,13.27
2023-02-11T15:44:04.247Z,13.07
2023-02-11T15:46:40.924Z,13.48
2023-02-11T15:49:19.140Z,13.18
2023-02-11T15:51:47.265Z,13.50
2023-02-11T15:54:24.059Z,12.80
2023-02-11T15:56:55.450Z,14.25
2023-02-11T15:59:32.044Z,13.35
2023-02-11T16:02:28.968Z,14.13
2023-02-11T16:05:00.468Z,13.80
2023-02-11T16:07:49.668Z,13.82
2023-02-11T16:10:27.606Z,13.32
2023-02-11T16:13:07.106Z,15.23
2023-02-11T16:15:34.262Z,14.50
2023-02-11T16:18:12.525Z,15.25
2023-02-11T16:20:40.326Z,15.85
2023-02-11T16:23:08.062Z,16.42
2023-02-11T16:25:36.130Z,15.68
2023-02-11T16:28:03.233Z,16.42
2023-02-11T16:30:38.137Z,15.90
2023-02-11T16:33:05.699Z,16.70
2023-02-11T16:35:33.056Z,16.23
2023-02-11T16:38:00.239Z,15.63
2023-02-11T16:40:28.277Z,16.17
2023-02-11T16:42:55.886Z,15.25
2023-02-11T16:45:23.127Z,15.52
2023-02-11T16:47:50.271Z,15.40
2023-02-11T16:50:25.405Z,16.23
2023-02-11T16:52:52.995Z,14.80
2023-02-11T16:55:22.045Z,15.63
2023-02-11T16:57:49.711Z,16.70
2023-02-11T17:00:18.283Z,17.55
2023-02-11T17:02:45.596Z,18.67
2023-02-11T17:05:20.667Z,21.73
2023-02-11T17:07:47.664Z,25.65
2023-02-11T17:10:33.303Z,33.83
2023-02-11T17:13:01.573Z,32.47
2023-02-11T17:15:28.935Z,30.70
2023-02-11T17:17:56.052Z,30.15
2023-02-11T17:20:23.524Z,26.48
2023-02-11T17:22:51.257Z,25.65
2023-02-11T17:25:18.811Z,22.88
2023-02-11T17:27:46.172Z,20.50
2023-02-11T17:30:14.233Z,19.80
2023-02-11T17:32:41.468Z,18.33
2023-02-11T17:35:08.892Z,18.23
2023-02-11T17:37:36.130Z,17.77
2023-02-11T17:40:03.538Z,17.70
2023-02-11T17:42:31.214Z,18.17
2023-02-11T17:44:58.671Z,17.80
2023-02-11T17:47:25.829Z,18.52
2023-02-11T17:49:53.001Z,18.48
2023-02-11T17:52:21.447Z,17.77
2023-02-11T17:54:49.031Z,17.65
2023-02-11T17:57:16.266Z,18.02
2023-02-11T17:59:43.497Z,17.33
2023-02-11T18:02:12.756Z,16.90
2023-02-11T18:04:40.397Z,16.20
2023-02-11T18:07:07.437Z,16.90
2023-02-11T18:09:41.775Z,15.88
2023-02-11T18:12:10.635Z,16.35
2023-02-11T18:14:40.445Z,16.02
2023-02-11T18:17:07.940Z,15.70
2023-02-11T18:19:36.504Z,16.40
2023-02-11T18:22:04.272Z,16.48
2023-02-11T18:24:31.848Z,16.25
2023-02-11T18:26:59.055Z,15.93
2023-02-11T18:29:26.500Z,16.08
2023-02-11T18:31:56.994Z,16.27
2023-02-11T18:34:25.567Z,15.50
2023-02-11T18:36:53.141Z,15.55
2023-02-11T18:39:24.119Z,15.27
2023-02-11T18:41:54.430Z,15.30
2023-02-11T18:44:23.878Z,14.77
2023-02-11T18:46:52.630Z,15.68
2023-02-11T18:49:20.668Z,15.75
2023-02-11T18:51:47.608Z,15.68
2023-02-11T18:54:14.935Z,16.65
2023-02-11T18:56:41.905Z,16.08
2023-02-11T18:59:09.065Z,16.55
2023-02-11T19:01:36.604Z,15.75
2023-02-11T19:04:05.704Z,15.98
2023-02-11T19:06:36.677Z,16.38
2023-02-11T19:09:11.144Z,16.58
2023-02-11T19:11:53.786Z,15.38
2023-02-11T19:14:27.266Z,17.08
2023-02-11T19:19:28.198Z,15.82
2023-02-11T19:21:56.913Z,15.05
2023-02-11T19:24:26.412Z,16.40
2023-02-11T19:26:58.146Z,16.42
2023-02-11T19:29:25.936Z,16.73
2023-02-11T19:31:53.167Z,15.63
2023-02-11T19:34:21.679Z,16.08
2023-02-11T19:36:50.331Z,15.65
2023-02-11T19:39:18.525Z,16.75
2023-02-11T19:41:45.544Z,15.75
2023-02-11T19:44:13.893Z,15.52
2023-02-11T19:46:41.069Z,14.60
2023-02-11T19:49:09.935Z,15.00
2023-02-11T19:51:39.178Z,14.82
2023-02-11T19:54:07.545Z,15.93
2023-02-11T19:56:35.172Z,15.60
2023-02-11T19:59:03.309Z,14.77
2023-02-11T20:01:30.499Z,15.60
2023-02-11T20:03:57.894Z,14.77
2023-02-11T20:06:30.128Z,14.32
2023-02-11T20:09:02.112Z,14.40
2023-02-11T20:11:31.260Z,14.40
2023-02-11T20:13:58.991Z,14.90
2023-02-11T20:16:45.125Z,14.70
2023-02-11T20:19:21.324Z,15.05
2023-02-11T20:21:52.941Z,14.68
2023-02-11T20:24:21.558Z,13.07
2023-02-11T20:26:49.480Z,14.48
2023-02-11T20:29:18.322Z,15.35
2023-02-11T20:31:45.674Z,13.43
2023-02-11T20:34:13.394Z,14.90
2023-02-11T20:36:40.934Z,14.63
2023-02-11T20:39:08.609Z,14.18
2023-02-11T20:41:39.769Z,14.57
2023-02-11T20:44:10.545Z,11.57
2023-02-11T20:46:46.328Z,15.63
2023-02-11T20:49:18.894Z,15.02
2023-02-11T20:51:46.609Z,14.00
2023-02-11T20:54:17.735Z,15.60
2023-02-11T20:56:48.133Z,14.70
2023-02-11T20:59:17.529Z,13.60
2023-02-11T21:01:49.188Z,13.57
2023-02-11T21:04:32.497Z,11.88
2023-02-11T21:07:02.427Z,15.65
2023-02-11T21:09:33.096Z,15.48
2023-02-11T21:12:01.207Z,14.63
2023-02-11T21:14:29.681Z,16.15
2023-02-11T21:16:57.461Z,15.52
2023-02-11T21:19:25.110Z,15.27
2023-02-11T21:21:52.806Z,16.55
2023-02-11T21:24:20.139Z,16.20
2023-02-11T21:26:47.103Z,16.40
2023-02-11T21:29:14.387Z,16.23
2023-02-11T21:31:41.891Z,16.00
2023-02-11T21:34:10.070Z,16.77
2023-02-11T21:36:37.188Z,15.95
2023-02-11T21:39:05.568Z,17.00
2023-02-11T21:41:33.147Z,15.98
2023-02-11T21:44:00.673Z,16.13
2023-02-11T21:46:27.888Z,16.77
2023-02-11T21:48:55.325Z,17.55
2023-02-11T21:51:25.094Z,17.65
2023-02-11T21:54:01.328Z,17.58
2023-02-11T21:56:31.430Z,18.67
2023-02-11T21:59:00.225Z,17.33
2023-02-11T22:01:31.634Z,17.42
2023-02-11T22:03:59.853Z,17.40
2023-02-11T22:06:31.322Z,17.60
2023-02-11T22:09:02.693Z,18.85
2023-02-11T22:11:29.714Z,18.30
2023-02-11T22:13:57.914Z,17.63
2023-02-11T22:16:27.036Z,18.25
2023-02-11T22:18:56.516Z,18.00
2023-02-11T22:21:24.261Z,17.98
2023-02-11T22:23:51.836Z,18.35
2023-02-11T22:26:22.837Z,17.88
2023-02-11T22:28:51.172Z,18.80
2023-02-11T22:31:22.860Z,20.60
2023-02-11T22:33:50.727Z,20.75
2023-02-11T22:36:25.272Z,19.60
2023-02-11T22:38:54.399Z,20.20
2023-02-11T22:41:23.091Z,19.98
2023-02-11T22:43:50.648Z,18.05
2023-02-11T22:46:19.593Z,20.63
2023-02-11T22:48:47.686Z,20.48
2023-02-11T22:51:19.908Z,19.60
2023-02-11T22:53:53.428Z,19.80
2023-02-11T22:56:21.517Z,20.40
2023-02-11T22:58:49.571Z,19.00
2023-02-11T23:01:17.855Z,19.63
2023-02-11T23:03:46.202Z,18.75
2023-02-11T23:06:13.544Z,21.08
2023-02-11T23:08:43.218Z,21.27
2023-02-11T23:11:19.689Z,21.33
2023-02-11T23:13:49.848Z,20.83
2023-02-11T23:16:29.012Z,19.60
2023-02-11T23:19:00.659Z,19.92
2023-02-11T23:21:31.280Z,20.23
2023-02-11T23:24:08.005Z,19.73
2023-02-11T23:26:38.531Z,19.25
2023-02-11T23:29:06.519Z,20.35
2023-02-11T23:31:39.538Z,20.00
2023-02-11T23:34:08.746Z,19.48
2023-02-11T23:36:36.246Z,18.15
2023-02-11T23:39:04.969Z,19.38
2023-02-11T23:41:31.935Z,18.77
2023-02-11T23:43:59.597Z,18.17
2023-02-11T23:46:27.894Z,18.42
2023-02-11T23:48:55.575Z,18.02
2023-02-11T23:51:23.387Z,18.13
2023-02-11T23:53:52.620Z,18.73
2023-02-11T23:56:24.715Z,18.88
2023-02-11T23:58:55.137Z,18.75
